AirNav   Bose ProFlight Aviation Headset
 
 323 users online  

U89 Glenns Ferry Municipal Airport
Glenns Ferry, Idaho, USA

GOING TO GLENNS FERRY?


FAA INFORMATION EFFECTIVE 08 NOVEMBER 2018

Location

FAA Identifier: U89
Lat/Long: 42-56-37.2000N / 115-19-48.3000W
42-56.620000N / 115-19.805000W
42.9436667 / -115.3300833
(estimated)
Elevation: 2536 ft. / 773.0 m (surveyed)
Variation: 17E (1985)
From city: 1 mile SW of GLENNS FERRY, ID
Time zone: UTC -7 (UTC -6 during Daylight Saving Time)
Zip code: 83623

Airport Operations

Airport use: Open to the public
Activation date: 04/1940
Control tower: no
ARTCC: SALT LAKE CITY CENTER
FSS: BOISE FLIGHT SERVICE STATION
NOTAMs facility: BOI (NOTAM-D service available)
Attendance: UNATNDD
Wind indicator: yes
Segmented circle: yes
NON-STD PAINTED TIRES.
Lights: ACTVT MIRL RY 08/26 - CTAF.
Beacon: white-green (lighted land airport)
ACTIVATE BEACON-CTAF,

Airport Communications

CTAF: 122.9

Nearby radio navigation aids

VOR radial/distance  VOR name  Freq  Var
LIAr079/(19.6)LIBERATOR VOR114.9018E

Airport Services

Parking: tiedowns
Airframe service: NONE
Powerplant service: NONE
Bottled oxygen: NONE
Bulk oxygen: NONE

Runway Information

Runway 8/26

Dimensions: 3050 x 60 ft. / 930 x 18 m
Surface: asphalt, in fair condition
Runway edge lights: medium intensity
RUNWAY 8  RUNWAY 26
Latitude: 42-56.643333N42-56.595833N
Longitude: 115-20.145667W115-19.465000W
Gradient: 0.2%0.2%
Traffic pattern: leftleft
Markings: basic, in fair conditionbasic, in fair condition
Obstructions: none
+4' FENCE AT 95' ON CNTRLN.
90 ft. trees, 1240 ft. from runway, 250 ft. left of centerline, 11:1 slope to clear
+4 FT FENCE AT 65 FT ON CNTRLN; +15 FT ROAD AT 85 FT ON CNTRLN.

Airport Ownership and Management from official FAA records

Ownership: Publicly-owned
Owner: CITY OF GLENNS FERRY
P.O. BOX 910
GLENNS FERRY, ID 83623
Phone 208-366-7418
Manager: JUSTIN WOOTAN
185 N KANSAS AVE
GLENNS FERRY, ID 83623
Phone (208) 599-0081

Airport Operational Statistics

Aircraft based on the field: 5
Single engine airplanes: 5
    
Aircraft operations: avg 34/week *
88% transient general aviation
11% local general aviation
1% military
* for 12-month period ending 08 February 2018

Additional Remarks

RWY 08 +150' PLINE CROSSES SNAKE RIVER CANYON APPROX 5 MILES DOWNRIVER.
RY 08/26 DISTANCE TO GO MARKERS EVERY 1000 FT S SIDE OF RY.

Instrument Procedures

There are no published instrument procedures at U89.

Some nearby airports with instrument procedures:

U76 - Mountain Home Municipal Airport (21 nm NW)
KMUO - Mountain Home Air Force Base (25 nm W)
KGNG - Gooding Municipal Airport (25 nm E)
KJER - Jerome County Airport (41 nm E)
KTWF - Joslin Field - Magic Valley Regional Airport (46 nm SE)
 
Loc | Ops | Rwys | IFR | FBO | Links
Com | Nav | Svcs | Stats | Notes


 
Area around U89 (Glenns Ferry Municipal Airport)
 
Road maps at: MapQuest Bing Google
 
Aerial photo
WARNING: Photo may not be current or correct
Aerial photo of U89 (Glenns Ferry Municipal Airport)
Photo by Winston Ellis
Photo taken 07-Sep-2009

Do you have a better or more recent aerial photo of Glenns Ferry Municipal Airport that you would like to share? If so, please send us your photo.

 
Sectional chart

 
Airport distance calculator
Flying to Glenns Ferry Municipal Airport? Find the distance to fly.

From to U89

Sunrise and sunset
Times for 18-Nov-2018
 Local
(UTC-7)
 Zulu
(UTC)
Morning civil twilight07:0814:08
Sunrise07:3814:38
Sunset17:1500:15
Evening civil twilight17:4500:45

Current date and time
Zulu (UTC)  18-Nov-2018 10:53:08
Local (UTC-7)  18-Nov-2018 03:53:08
 
METAR
U76 
21nm NW 
SuperAWOS
180955Z AUTO 00000KT 10SM M04/M07 A3025
KMUO 
24nm W 
180958Z AUTO 09008KT 10SM CLR M05/M05 A3032 RMK AO2 SLP287
KJER 
41nm E 
180953Z AUTO 09007KT 10SM CLR M04/M07 A3031 RMK AO2 SLP282 T10391067
TAF
NOTAMs
Click for the latest NOTAMs
NOTAMs are issued by the DoD/FAA and will open in a separate window not controlled by AirNav.

 

 
 

Would you like to see your business listed on this page?

 If your business provides an interesting product or service to pilots, flight crews, aircraft, or users of the Glenns Ferry Municipal Airport, you should consider listing it here.  To start the listing process, click on the button below
 
Add a business
 

Other Pages about Glenns Ferry Municipal Airport

Update a link
 
Copyright © AirNav, LLC. All rights reserved. Privacy Policy  Contact